Time;durP1;ratioP1;P1;durP2;ratioP2;P2;SDS_P1;SDS_P2;PMS_P1;PMS_P2;Temp;Humidity;BMP_temperature;BMP_pressure;BME280_temperature;BME280_humidity;BME280_pressure;Samples;Min_cycle;Max_cycle;Signal;HPM_P1;HPM_P2
2023/10/29 00:01:37;;;;;;;5.13;1.38;;;;;;;14.76;59.60;93853.78;5045131;28;20346;-81
2023/10/29 00:04:03;;;;;;;8.80;1.48;;;;;;;14.75;59.62;93852.97;5046210;28;20037;-80
2023/10/29 00:06:28;;;;;;;6.50;1.77;;;;;;;14.76;59.95;93845.72;5046435;28;20052;-81
2023/10/29 00:08:53;;;;;;;12.55;2.78;;;;;;;14.75;59.86;93849.53;5046282;28;20026;-81
2023/10/29 00:11:19;;;;;;;6.53;1.30;;;;;;;14.75;59.93;93850.31;5046095;28;20021;-82
2023/10/29 00:13:45;;;;;;;6.07;1.83;;;;;;;14.76;59.93;93851.09;5046133;28;20028;-83
2023/10/29 00:16:11;;;;;;;5.38;1.45;;;;;;;14.76;59.85;93853.78;5046247;28;20304;-83
2023/10/29 00:18:36;;;;;;;4.65;1.40;;;;;;;14.73;59.54;93859.81;5045933;28;20037;-83
2023/10/29 00:21:03;;;;;;;5.47;1.38;;;;;;;14.73;59.48;93857.91;5045969;28;20025;-82
2023/10/29 00:23:29;;;;;;;5.22;1.08;;;;;;;14.73;59.29;93857.91;5045946;28;20196;-83
2023/10/29 00:25:54;;;;;;;6.75;1.73;;;;;;;14.71;59.28;93862.06;5045938;28;20024;-83
2023/10/29 00:28:20;;;;;;;6.57;1.48;;;;;;;14.67;59.46;93858.47;5044620;28;20029;-80
2023/10/29 00:30:46;;;;;;;4.00;1.15;;;;;;;14.65;59.21;93856.13;5046044;28;20035;-81
2023/10/29 00:33:11;;;;;;;7.38;1.35;;;;;;;14.66;59.06;93857.72;5045529;28;20311;-81
2023/10/29 00:35:37;;;;;;;4.35;1.35;;;;;;;14.61;58.99;93864.09;5045774;28;20099;-82
2023/10/29 00:38:02;;;;;;;4.93;1.50;;;;;;;14.57;59.00;93868.56;5045691;28;20231;-81
2023/10/29 00:40:30;;;;;;;4.38;1.40;;;;;;;14.48;59.58;93865.19;5045620;28;20067;-81
2023/10/29 00:42:57;;;;;;;6.53;1.52;;;;;;;14.42;59.48;93864.63;5045650;28;20032;-80
2023/10/29 00:45:23;;;;;;;3.75;1.10;;;;;;;14.32;58.93;93870.44;5045579;28;20029;-81
2023/10/29 00:47:49;;;;;;;7.10;1.80;;;;;;;14.23;59.17;93873.25;5045669;28;20036;-82
2023/10/29 00:50:14;;;;;;;7.28;1.63;;;;;;;14.19;59.73;93877.72;5045723;28;20080;-82
2023/10/29 00:52:40;;;;;;;5.53;1.40;;;;;;;14.13;60.04;93886.31;5045178;28;20029;-82
2023/10/29 00:55:06;;;;;;;4.93;1.65;;;;;;;14.07;59.48;93879.63;5045554;28;20029;-82
2023/10/29 00:57:32;;;;;;;5.53;1.55;;;;;;;14.06;59.36;93884.19;5044287;28;20059;-86
2023/10/29 00:59:57;;;;;;;5.85;2.13;;;;;;;14.06;59.67;93878.81;5045682;28;20028;-82
2023/10/29 01:02:23;;;;;;;6.72;1.35;;;;;;;13.95;59.73;93875.81;5045372;28;20017;-82
2023/10/29 01:04:48;;;;;;;7.30;1.42;;;;;;;13.97;59.59;93878.16;5045313;28;20040;-80
2023/10/29 01:07:14;;;;;;;5.35;1.42;;;;;;;13.96;60.01;93881.94;5045547;28;20029;-80
2023/10/29 01:09:42;;;;;;;4.75;1.10;;;;;;;13.91;60.23;93879.47;5045424;28;20342;-80
2023/10/29 01:12:15;;;;;;;5.57;1.70;;;;;;;13.85;60.07;93885.03;5044254;28;20044;-80
2023/10/29 01:14:41;;;;;;;5.20;1.58;;;;;;;13.81;59.70;93886.06;5045050;28;20280;-80
2023/10/29 01:17:06;;;;;;;4.25;1.25;;;;;;;13.77;59.86;93893.97;5045222;28;20075;-81
2023/10/29 01:19:31;;;;;;;8.55;1.50;;;;;;;13.72;59.94;93890.72;5045110;28;20045;-80
2023/10/29 01:21:57;;;;;;;6.72;2.05;;;;;;;13.68;60.18;93887.13;5045024;28;20025;-80
2023/10/29 01:24:23;;;;;;;9.80;2.00;;;;;;;13.66;60.06;93892.84;5045089;28;20031;-80
2023/10/29 01:26:48;;;;;;;6.88;1.20;;;;;;;13.63;59.59;93882.78;5045028;28;20033;-80
2023/10/29 01:29:13;;;;;;;9.10;1.40;;;;;;;13.62;59.90;93884.69;5044872;28;20096;-80
2023/10/29 01:31:39;;;;;;;6.25;1.63;;;;;;;13.58;60.09;93880.31;5045007;28;20135;-80
2023/10/29 01:34:43;;;;;;;2.85;1.13;;;;;;;13.51;60.29;93885.41;5044392;28;20029;-83
2023/10/29 01:37:08;;;;;;;9.18;2.40;;;;;;;13.43;60.22;93890.53;5042782;28;20079;-83
2023/10/29 01:39:34;;;;;;;3.67;1.67;;;;;;;13.35;60.38;93885.25;5043168;28;20096;-83
2023/10/29 01:41:59;;;;;;;6.88;2.03;;;;;;;13.31;60.40;93884.34;5043705;28;20286;-86
2023/10/29 01:44:25;;;;;;;8.20;1.23;;;;;;;13.33;60.41;93890.16;5043288;28;20025;-83
2023/10/29 01:46:50;;;;;;;5.72;1.63;;;;;;;13.30;60.63;93890.81;5043404;28;20092;-82
2023/10/29 01:49:15;;;;;;;3.97;1.10;;;;;;;13.28;60.67;93901.03;5044507;28;20055;-82
2023/10/29 01:51:41;;;;;;;6.03;1.20;;;;;;;13.20;60.66;93894.66;5044723;28;20093;-82
2023/10/29 01:54:06;;;;;;;7.88;1.30;;;;;;;13.17;60.21;93898.00;5044011;28;20033;-82
2023/10/29 01:56:32;;;;;;;8.85;1.42;;;;;;;13.19;59.54;93895.78;5044152;28;20022;-82
2023/10/29 01:58:58;;;;;;;6.20;1.38;;;;;;;13.27;58.78;93897.59;5044207;28;20025;-82
2023/10/29 02:01:23;;;;;;;4.78;0.95;;;;;;;13.27;57.94;93896.78;5044124;28;20373;-82
2023/10/29 02:03:49;;;;;;;5.18;1.13;;;;;;;13.24;58.72;93890.19;5043970;28;20101;-82
2023/10/29 02:06:18;;;;;;;4.72;1.85;;;;;;;13.19;59.29;93896.53;5043104;28;20025;-82
2023/10/29 02:08:43;;;;;;;10.20;1.67;;;;;;;13.21;59.87;93904.25;5044034;28;20090;-81
2023/10/29 02:11:09;;;;;;;2.97;0.90;;;;;;;13.22;59.59;93895.09;5043881;28;20100;-81
2023/10/29 02:13:34;;;;;;;2.40;0.88;;;;;;;13.21;59.30;93893.56;5042651;28;20033;-82
2023/10/29 02:16:00;;;;;;;5.03;1.27;;;;;;;13.24;59.15;93900.91;5043661;28;20025;-82
2023/10/29 02:18:25;;;;;;;4.10;1.05;;;;;;;13.28;58.23;93899.13;5043714;28;20041;-82
2023/10/29 02:20:51;;;;;;;4.40;0.90;;;;;;;13.31;58.18;93900.41;5043767;28;20021;-81
2023/10/29 02:23:16;;;;;;;4.07;1.25;;;;;;;13.36;57.78;93901.00;5043751;28;20028;-82
2023/10/29 02:25:41;;;;;;;2.67;0.77;;;;;;;13.42;57.58;93898.91;5043516;28;20021;-82
2023/10/29 02:28:07;;;;;;;4.03;0.90;;;;;;;13.50;57.31;93897.25;5043492;28;20045;-82
2023/10/29 02:30:32;;;;;;;3.95;1.30;;;;;;;13.58;57.00;93907.09;5043337;28;20025;-82
2023/10/29 02:32:58;;;;;;;6.13;1.10;;;;;;;13.69;56.59;93902.09;5043438;28;20075;-81
2023/10/29 02:35:23;;;;;;;5.25;0.95;;;;;;;13.79;56.25;93901.66;5043554;28;20026;-82
2023/10/29 02:37:49;;;;;;;6.30;1.25;;;;;;;13.88;55.91;93904.25;5043313;28;20040;-81
2023/10/29 02:40:14;;;;;;;7.93;1.33;;;;;;;13.97;55.78;93902.28;5043247;28;20037;-78
2023/10/29 02:42:39;;;;;;;4.78;0.98;;;;;;;14.04;55.67;93907.84;5043356;28;20026;-79
2023/10/29 02:45:05;;;;;;;5.75;0.73;;;;;;;14.10;55.70;93906.50;5043071;28;20025;-79
2023/10/29 02:47:31;;;;;;;10.40;1.77;;;;;;;14.15;55.97;93909.00;5043392;28;20029;-79
2023/10/29 02:49:56;;;;;;;3.13;1.02;;;;;;;14.18;56.71;93905.63;5043063;28;20033;-84
2023/10/29 02:52:21;;;;;;;3.20;0.82;;;;;;;14.18;57.18;93919.03;5043097;28;20231;-84
2023/10/29 02:54:48;;;;;;;8.60;1.33;;;;;;;14.12;57.42;93912.31;5043794;28;20131;-83
2023/10/29 02:57:14;;;;;;;7.63;1.70;;;;;;;14.05;58.63;93915.56;5043250;28;20323;-81
2023/10/29 02:59:40;;;;;;;5.22;2.05;;;;;;;13.98;59.73;93914.53;5043283;28;20025;-80
2023/10/29 03:02:05;;;;;;;12.63;2.38;;;;;;;13.88;60.25;93906.94;5042845;28;20061;-80
2023/10/29 03:04:33;;;;;;;7.50;1.92;;;;;;;13.75;60.61;93917.63;5042999;28;20025;-80
2023/10/29 03:06:58;;;;;;;7.32;2.28;;;;;;;13.63;61.28;93909.56;5043146;28;20315;-80
2023/10/29 03:09:24;;;;;;;8.15;2.25;;;;;;;13.54;61.75;93916.91;5043011;28;20087;-81
2023/10/29 03:11:49;;;;;;;9.82;2.88;;;;;;;13.49;62.14;93928.59;5041852;28;20029;-80
2023/10/29 03:14:14;;;;;;;10.88;3.28;;;;;;;13.43;62.40;93922.66;5041859;28;20040;-79
2023/10/29 03:16:40;;;;;;;11.43;2.88;;;;;;;13.36;62.72;93925.09;5042873;28;20231;-80
2023/10/29 03:19:05;;;;;;;10.23;3.35;;;;;;;13.30;63.07;93929.06;5042766;28;20056;-80
2023/10/29 03:21:30;;;;;;;6.72;1.95;;;;;;;13.23;63.05;93929.56;5042835;28;20041;-84
2023/10/29 03:23:56;;;;;;;6.55;2.20;;;;;;;13.15;63.40;93932.31;5043091;28;20017;-83
2023/10/29 03:26:21;;;;;;;8.38;2.50;;;;;;;13.09;63.25;93937.09;5042995;28;20323;-83
2023/10/29 03:28:48;;;;;;;8.02;1.90;;;;;;;13.00;63.58;93941.69;5042946;28;20029;-83
2023/10/29 03:31:14;;;;;;;8.05;2.45;;;;;;;12.93;63.81;93941.47;5041927;28;20030;-85
2023/10/29 03:33:39;;;;;;;7.90;2.33;;;;;;;12.89;64.12;93935.97;5041583;28;20056;-87
2023/10/29 03:36:06;;;;;;;7.47;2.58;;;;;;;12.83;64.33;93942.63;5044577;28;20022;-87
2023/10/29 03:38:31;;;;;;;6.47;2.30;;;;;;;12.76;64.93;93945.81;5046393;28;20027;-78
2023/10/29 03:40:56;;;;;;;8.25;2.75;;;;;;;12.66;65.01;93943.50;5047070;28;20287;-78
2023/10/29 03:43:25;;;;;;;6.25;1.85;;;;;;;12.59;65.35;93953.91;5046837;28;20049;-80
2023/10/29 03:45:50;;;;;;;9.50;2.13;;;;;;;12.56;65.55;93955.34;5045691;28;20029;-79
2023/10/29 03:48:16;;;;;;;8.73;2.15;;;;;;;12.51;65.38;93952.84;5046909;28;20151;-79
2023/10/29 03:50:42;;;;;;;8.25;1.90;;;;;;;12.49;65.79;93954.28;5046630;28;20025;-79
2023/10/29 03:53:07;;;;;;;5.70;2.00;;;;;;;12.43;65.60;93948.34;5046631;28;20208;-79
2023/10/29 03:55:36;;;;;;;7.82;1.95;;;;;;;12.34;65.83;93953.72;5046793;28;20378;-79
2023/10/29 03:58:01;;;;;;;4.55;1.70;;;;;;;12.30;65.85;93954.69;5046424;28;20032;-83
2023/10/29 04:00:27;;;;;;;5.78;1.83;;;;;;;12.28;65.96;93963.03;5046750;28;20254;-83
2023/10/29 04:02:52;;;;;;;5.47;1.70;;;;;;;12.19;66.22;93963.06;5046557;28;20021;-83
2023/10/29 04:05:18;;;;;;;6.55;1.70;;;;;;;12.12;66.09;93972.69;5046316;28;20327;-83
2023/10/29 04:07:46;;;;;;;9.30;1.77;;;;;;;12.04;66.20;93963.56;5046749;28;20041;-82
2023/10/29 04:10:14;;;;;;;7.28;1.85;;;;;;;11.99;66.44;93975.22;5046167;28;20022;-82
2023/10/29 04:12:40;;;;;;;7.88;1.98;;;;;;;11.94;66.53;93977.28;5046355;28;20097;-82
2023/10/29 04:15:06;;;;;;;11.70;1.35;;;;;;;11.90;66.37;93976.34;5044879;28;20025;-83
2023/10/29 04:17:31;;;;;;;7.50;1.60;;;;;;;11.88;66.53;93970.50;5046373;28;20059;-83
2023/10/29 04:19:58;;;;;;;5.63;1.55;;;;;;;11.84;66.31;93973.03;5045828;28;20220;-82
2023/10/29 04:22:23;;;;;;;10.77;2.42;;;;;;;11.83;66.54;93966.13;5046384;28;20021;-83
2023/10/29 04:24:48;;;;;;;8.55;1.50;;;;;;;11.83;66.77;93964.22;5046378;28;20021;-83
2023/10/29 04:27:14;;;;;;;3.50;1.17;;;;;;;11.80;67.02;93954.19;5046016;28;20021;-83
2023/10/29 04:29:39;;;;;;;7.40;1.65;;;;;;;11.77;67.00;93946.81;5046181;28;20032;-83
2023/10/29 04:32:05;;;;;;;7.38;1.38;;;;;;;11.70;67.62;93959.84;5044490;28;20047;-82
2023/10/29 04:34:31;;;;;;;5.32;2.08;;;;;;;11.61;67.90;93951.09;5045841;28;20021;-82
2023/10/29 04:36:56;;;;;;;5.40;1.90;;;;;;;11.55;68.04;93960.38;5044600;28;20434;-84
2023/10/29 04:39:21;;;;;;;7.55;1.27;;;;;;;11.51;68.12;93956.75;5044663;28;20026;-80
2023/10/29 04:41:47;;;;;;;6.32;1.23;;;;;;;11.43;68.11;93959.09;5045678;28;20064;-77
2023/10/29 04:44:13;;;;;;;6.32;1.83;;;;;;;11.41;68.38;93955.19;5044583;28;20092;-76
2023/10/29 04:46:38;;;;;;;14.70;2.10;;;;;;;11.37;68.52;93957.69;5045316;28;20021;-78
2023/10/29 04:49:03;;;;;;;5.82;1.30;;;;;;;11.36;68.92;93953.47;5045348;28;20028;-82
2023/10/29 04:51:30;;;;;;;5.07;1.27;;;;;;;11.31;69.18;93960.84;5045778;28;20251;-83
2023/10/29 04:53:55;;;;;;;4.38;1.45;;;;;;;11.32;68.92;93968.53;5045067;28;20315;-83
2023/10/29 04:56:21;;;;;;;6.07;1.13;;;;;;;11.32;67.95;93971.22;5045835;28;20052;-83
2023/10/29 04:58:46;;;;;;;4.18;1.20;;;;;;;11.30;67.92;93981.41;5045399;28;20041;-83
2023/10/29 05:01:13;;;;;;;8.85;1.42;;;;;;;11.27;67.96;93981.25;5045492;28;20049;-82
2023/10/29 05:03:39;;;;;;;7.00;2.00;;;;;;;11.23;68.48;93994.44;5044964;28;20017;-81
2023/10/29 05:06:07;;;;;;;14.32;2.72;;;;;;;11.16;69.31;93991.47;5044954;28;20116;-85
2023/10/29 05:08:32;;;;;;;9.63;2.40;;;;;;;11.17;70.49;93998.34;5045164;28;20025;-81
2023/10/29 05:10:58;;;;;;;7.68;2.72;;;;;;;11.13;71.15;94003.50;5044999;28;20021;-83
2023/10/29 05:13:23;;;;;;;10.65;2.55;;;;;;;11.16;71.45;94004.78;5044840;28;20308;-83
2023/10/29 05:15:48;;;;;;;6.38;1.73;;;;;;;11.16;71.44;94008.25;5044931;28;20083;-82
2023/10/29 05:18:14;;;;;;;5.85;1.98;;;;;;;11.21;71.35;94017.97;5044971;28;20391;-78
2023/10/29 05:20:39;;;;;;;8.23;2.33;;;;;;;11.28;71.31;94015.63;5044716;28;20044;-77
2023/10/29 05:23:05;;;;;;;7.25;2.55;;;;;;;11.31;70.95;94025.66;5045309;28;20025;-79
2023/10/29 05:25:30;;;;;;;11.18;2.65;;;;;;;11.33;70.93;94026.13;5044733;28;20021;-79
2023/10/29 05:27:56;;;;;;;10.57;2.53;;;;;;;11.41;70.81;94035.25;5044986;28;20052;-79
2023/10/29 05:30:22;;;;;;;14.25;3.10;;;;;;;11.47;70.51;94033.22;5044766;28;20280;-84
2023/10/29 05:32:48;;;;;;;7.55;2.40;;;;;;;11.50;70.22;94037.91;5044456;28;20196;-82
2023/10/29 05:35:13;;;;;;;12.40;2.80;;;;;;;11.56;70.32;94029.47;5044627;28;20021;-83
2023/10/29 05:37:39;;;;;;;9.38;2.45;;;;;;;11.62;70.62;94030.88;5044258;28;20307;-82
2023/10/29 05:40:07;;;;;;;12.48;2.90;;;;;;;11.65;71.38;94026.78;5044372;28;20025;-86
2023/10/29 05:42:33;;;;;;;9.38;2.67;;;;;;;11.72;71.47;94035.06;5044136;28;20021;-82
2023/10/29 05:44:58;;;;;;;7.88;2.33;;;;;;;11.78;70.78;94035.72;5044106;28;20096;-81
2023/10/29 05:47:24;;;;;;;11.00;2.40;;;;;;;11.88;69.98;94029.25;5042952;28;20021;-83
2023/10/29 05:49:49;;;;;;;10.52;2.55;;;;;;;11.97;69.46;94041.53;5043174;28;20091;-82
2023/10/29 05:52:14;;;;;;;5.10;2.13;;;;;;;12.07;69.29;94047.63;5044245;28;20044;-80
2023/10/29 05:54:40;;;;;;;7.28;2.08;;;;;;;12.15;69.07;94041.50;5044159;28;20096;-79
2023/10/29 05:57:05;;;;;;;7.90;2.10;;;;;;;12.27;67.87;94049.63;5044442;28;20021;-84
2023/10/29 05:59:32;;;;;;;5.32;1.85;;;;;;;12.33;67.20;94058.28;5043490;28;20051;-82
2023/10/29 06:01:57;;;;;;;7.00;2.35;;;;;;;12.42;68.36;94062.50;5044209;28;20096;-80
2023/10/29 06:04:23;;;;;;;10.43;2.80;;;;;;;12.44;68.03;94059.50;5043835;28;20028;-80
2023/10/29 06:06:48;;;;;;;4.38;1.90;;;;;;;12.40;67.89;94059.34;5043810;28;20060;-80
2023/10/29 06:09:14;;;;;;;8.63;1.75;;;;;;;12.42;68.33;94075.09;5044108;28;20025;-81
2023/10/29 06:11:42;;;;;;;10.35;2.65;;;;;;;12.45;68.04;94079.78;5043726;28;20029;-82
2023/10/29 06:14:08;;;;;;;12.95;2.88;;;;;;;12.48;68.22;94089.84;5043605;28;20036;-81
2023/10/29 06:16:34;;;;;;;7.63;2.10;;;;;;;12.50;68.09;94086.88;5042516;28;20060;-82
2023/10/29 06:19:02;;;;;;;8.57;2.40;;;;;;;12.52;67.77;94088.09;5043526;28;20041;-82
2023/10/29 06:21:28;;;;;;;10.63;2.58;;;;;;;12.59;68.00;94088.38;5043528;28;20029;-84
2023/10/29 06:23:54;;;;;;;6.25;2.88;;;;;;;12.67;67.90;94089.47;5043678;28;20075;-81
2023/10/29 06:26:19;;;;;;;9.18;2.13;;;;;;;12.74;67.26;94083.63;5043662;28;20367;-81
2023/10/29 06:28:45;;;;;;;9.27;2.85;;;;;;;12.81;66.84;94083.91;5043794;28;20228;-81
2023/10/29 06:31:10;;;;;;;7.00;1.98;;;;;;;12.91;66.13;94094.25;5043481;28;20185;-81
2023/10/29 06:33:46;;;;;;;6.03;2.15;;;;;;;12.99;65.58;94096.09;5043794;28;20053;-84
2023/10/29 06:36:11;;;;;;;7.55;2.22;;;;;;;13.08;65.11;94093.38;5043587;28;20017;-85
2023/10/29 06:38:36;;;;;;;12.75;3.28;;;;;;;13.17;64.91;94101.38;5043516;28;20254;-85
2023/10/29 06:41:02;;;;;;;8.55;2.70;;;;;;;13.24;65.04;94097.06;5043691;28;20017;-86
2023/10/29 06:43:28;;;;;;;9.30;3.00;;;;;;;13.33;65.18;94097.06;5043639;28;20257;-85
2023/10/29 06:45:53;;;;;;;12.80;3.75;;;;;;;13.36;64.96;94115.16;5043887;28;20307;-86
2023/10/29 06:48:18;;;;;;;13.07;3.80;;;;;;;13.36;64.36;94107.13;5043414;28;20021;-87
2023/10/29 06:50:44;;;;;;;14.55;3.30;;;;;;;13.42;64.56;94102.38;5042127;28;20097;-86
2023/10/29 06:53:09;;;;;;;15.13;3.75;;;;;;;13.53;64.92;94116.94;5040812;28;20017;-87
2023/10/29 06:55:36;;;;;;;10.70;3.67;;;;;;;13.63;64.68;94110.41;5042241;28;20018;-87
2023/10/29 06:58:01;;;;;;;9.35;2.83;;;;;;;13.67;64.53;94121.28;5042395;28;20271;-86
2023/10/29 07:00:26;;;;;;;14.60;3.45;;;;;;;13.71;63.47;94114.16;5042176;28;20212;-86
2023/10/29 07:02:52;;;;;;;10.85;3.13;;;;;;;13.76;63.46;94106.72;5042080;28;20017;-87
2023/10/29 07:05:17;;;;;;;9.90;2.58;;;;;;;13.87;62.75;94114.34;5042389;28;20036;-85
2023/10/29 07:07:43;;;;;;;6.93;2.55;;;;;;;13.99;62.04;94125.13;5042659;28;20025;-86
2023/10/29 07:10:08;;;;;;;13.77;2.38;;;;;;;14.11;60.45;94135.91;5039333;28;20294;-86
2023/10/29 07:12:34;;;;;;;5.70;1.50;;;;;;;14.17;59.90;94134.59;5039874;28;20219;-86
2023/10/29 07:14:59;;;;;;;9.13;1.65;;;;;;;14.21;59.69;94127.47;5038496;28;20025;-86
2023/10/29 07:17:25;;;;;;;6.60;2.15;;;;;;;14.30;59.85;94130.06;5039998;28;20037;-86
2023/10/29 07:19:51;;;;;;;8.95;2.55;;;;;;;14.35;59.49;94135.22;5040036;28;20049;-86
2023/10/29 07:22:16;;;;;;;12.65;2.30;;;;;;;14.44;59.29;94130.56;5040824;28;20075;-86
2023/10/29 07:24:42;;;;;;;12.70;2.80;;;;;;;14.51;59.26;94124.69;5042122;28;20029;-86
2023/10/29 07:27:07;;;;;;;5.95;2.33;;;;;;;14.61;59.12;94124.28;5043131;28;20029;-86
2023/10/29 07:29:33;;;;;;;8.95;2.60;;;;;;;14.69;59.20;94117.25;5042885;28;20108;-86
2023/10/29 07:31:59;;;;;;;13.27;2.60;;;;;;;14.77;57.89;94123.63;5043204;28;20021;-86
2023/10/29 07:34:24;;;;;;;7.07;2.65;;;;;;;14.85;57.82;94131.56;5042778;28;20018;-85
2023/10/29 07:36:50;;;;;;;8.07;2.47;;;;;;;14.93;57.68;94137.19;5043086;28;20045;-86
2023/10/29 07:39:15;;;;;;;10.48;2.95;;;;;;;15.02;57.75;94135.97;5042998;28;20021;-86
2023/10/29 07:41:40;;;;;;;10.73;2.45;;;;;;;15.16;56.97;94142.91;5042712;28;20087;-86
2023/10/29 07:44:08;;;;;;;7.93;2.67;;;;;;;15.16;57.13;94140.22;5042621;28;20108;-86
2023/10/29 07:46:34;;;;;;;7.05;2.03;;;;;;;15.15;57.01;94127.94;5042858;28;20048;-86
2023/10/29 07:48:59;;;;;;;11.18;2.90;;;;;;;15.23;56.48;94129.72;5042675;28;20044;-86
2023/10/29 07:51:24;;;;;;;11.80;3.00;;;;;;;15.24;56.28;94134.78;5042765;28;20026;-86
2023/10/29 07:53:50;;;;;;;6.82;2.15;;;;;;;15.29;56.01;94141.03;5041461;28;20187;-86
2023/10/29 07:56:16;;;;;;;9.65;2.25;;;;;;;15.29;55.88;94139.13;5041889;28;20017;-86
2023/10/29 07:58:41;;;;;;;8.23;2.60;;;;;;;15.32;56.13;94134.97;5042854;28;20025;-86
2023/10/29 08:01:14;;;;;;;10.02;2.08;;;;;;;15.41;55.84;94141.03;5042635;28;20358;-86
2023/10/29 08:03:41;;;;;;;7.28;1.70;;;;;;;15.42;54.64;94132.63;5042568;28;20014;-85
2023/10/29 08:06:06;;;;;;;4.13;1.38;;;;;;;15.48;54.87;94140.47;5042674;28;20319;-86
2023/10/29 08:08:31;;;;;;;4.18;1.65;;;;;;;15.57;54.90;94135.75;5042611;28;20159;-86
2023/10/29 08:10:57;;;;;;;4.47;1.40;;;;;;;15.67;55.11;94129.91;5041338;28;20188;-86
2023/10/29 08:13:22;;;;;;;9.43;2.05;;;;;;;15.75;54.67;94123.69;5041223;28;20227;-86
2023/10/29 08:15:48;;;;;;;7.07;2.03;;;;;;;15.87;55.10;94124.78;5042718;28;20017;-86
2023/10/29 08:18:14;;;;;;;8.73;2.13;;;;;;;15.99;54.63;94117.44;5042690;28;20315;-86
2023/10/29 08:20:40;;;;;;;9.73;2.05;;;;;;;16.11;54.72;94121.22;5041398;28;20092;-87
2023/10/29 08:23:06;;;;;;;7.88;2.40;;;;;;;16.22;54.30;94125.78;5045180;28;20020;-88
2023/10/29 08:25:32;;;;;;;11.75;1.95;;;;;;;16.33;54.32;94128.78;5046106;28;20028;-87
2023/10/29 08:27:58;;;;;;;4.60;2.15;;;;;;;16.43;53.63;94132.88;5044984;28;20144;-87
2023/10/29 08:30:33;;;;;;;11.77;1.90;;;;;;;16.53;53.05;94137.78;5044982;28;20025;-87
2023/10/29 08:32:58;;;;;;;8.35;2.53;;;;;;;16.48;52.58;94151.47;5045974;28;20029;-87
2023/10/29 08:35:23;;;;;;;7.65;1.70;;;;;;;16.63;52.49;94150.72;5045990;28;20033;-87
2023/10/29 08:37:51;;;;;;;6.57;2.15;;;;;;;16.63;52.43;94152.66;5044711;28;20078;-87
2023/10/29 08:40:17;;;;;;;7.82;3.13;;;;;;;16.74;52.61;94158.31;5044849;28;20037;-87
2023/10/29 08:42:43;;;;;;;11.38;3.53;;;;;;;16.79;52.82;94160.72;5044922;28;20276;-84
2023/10/29 08:45:09;;;;;;;11.57;3.03;;;;;;;16.87;52.21;94150.97;5046028;28;20029;-88
2023/10/29 08:47:34;;;;;;;10.50;3.70;;;;;;;16.98;52.09;94152.03;5046127;28;20258;-88
2023/10/29 08:50:00;;;;;;;9.90;3.38;;;;;;;16.99;51.41;94156.28;5044392;28;20026;-88
2023/10/29 08:52:25;;;;;;;11.30;3.03;;;;;;;17.03;51.15;94163.31;5045587;28;20060;-87
2023/10/29 08:54:51;;;;;;;6.60;2.17;;;;;;;17.14;51.36;94163.59;5045406;28;20048;-86
2023/10/29 08:57:16;;;;;;;13.65;2.95;;;;;;;17.26;50.79;94165.44;5045632;28;20331;-87
2023/10/29 08:59:42;;;;;;;10.90;2.42;;;;;;;17.27;50.84;94164.28;5045361;28;20025;-86
2023/10/29 09:02:08;;;;;;;11.88;2.40;;;;;;;17.33;50.64;94154.81;5045027;28;20029;-87
2023/10/29 09:04:39;;;;;;;12.13;3.30;;;;;;;17.47;50.17;94150.91;5045749;28;20051;-86
2023/10/29 09:07:05;;;;;;;6.63;2.30;;;;;;;17.46;48.91;94160.88;5044951;28;20018;-87
2023/10/29 09:09:31;;;;;;;6.65;2.50;;;;;;;17.52;49.18;94159.47;5044142;28;20029;-88
2023/10/29 09:11:58;;;;;;;13.55;2.90;;;;;;;17.44;48.89;94150.47;5045234;28;20197;-87
2023/10/29 09:14:26;;;;;;;6.78;1.90;;;;;;;17.42;49.16;94149.25;5044960;28;20339;-87
2023/10/29 09:16:51;;;;;;;10.00;2.15;;;;;;;17.42;49.67;94147.34;5043993;28;20031;-86
2023/10/29 09:19:17;;;;;;;19.05;4.75;;;;;;;17.53;49.34;94144.88;5044401;28;20112;-87
2023/10/29 09:21:44;;;;;;;8.45;2.25;;;;;;;17.61;48.74;94141.22;5044050;28;20097;-88
2023/10/29 09:24:11;;;;;;;13.05;2.00;;;;;;;17.73;48.93;94144.97;5045304;28;20316;-88
2023/10/29 09:26:37;;;;;;;10.45;2.70;;;;;;;17.82;48.67;94151.69;5044077;28;20262;-89
2023/10/29 09:29:05;;;;;;;8.98;2.20;;;;;;;17.84;47.77;94149.47;5045050;28;20312;-87
2023/10/29 09:31:30;;;;;;;12.13;2.40;;;;;;;17.91;47.60;94153.44;5045047;28;20150;-87
2023/10/29 09:33:56;;;;;;;10.75;2.35;;;;;;;17.98;47.72;94150.91;5042429;28;20346;-87
2023/10/29 09:36:22;;;;;;;5.75;2.13;;;;;;;18.09;46.64;94149.22;5045006;28;20100;-87
2023/10/29 09:38:48;;;;;;;9.07;1.75;;;;;;;18.12;46.79;94142.34;5044861;28;20067;-87
2023/10/29 09:41:19;;;;;;;10.13;2.00;;;;;;;18.16;46.15;94146.69;5043875;28;20029;-87
2023/10/29 09:43:46;;;;;;;6.45;1.63;;;;;;;18.14;45.90;94140.84;5044565;28;20021;-87
2023/10/29 09:46:12;;;;;;;8.48;2.53;;;;;;;18.16;46.00;94132.41;5044428;28;20029;-88
2023/10/29 09:48:38;;;;;;;5.95;1.73;;;;;;;18.15;46.09;94137.00;5044973;28;20044;-87
2023/10/29 09:51:05;;;;;;;7.97;1.83;;;;;;;18.18;45.54;94135.53;5044482;28;20135;-87
2023/10/29 09:53:33;;;;;;;10.82;1.85;;;;;;;18.16;46.00;94132.41;5043433;28;20076;-87
2023/10/29 09:56:01;;;;;;;7.15;2.58;;;;;;;18.23;46.04;94127.94;5044568;28;20021;-87
2023/10/29 09:58:27;;;;;;;7.55;1.77;;;;;;;18.35;45.81;94128.94;5044604;28;20097;-87
2023/10/29 10:00:53;;;;;;;6.05;1.83;;;;;;;18.40;45.83;94112.47;5044367;28;20044;-88
2023/10/29 10:03:18;;;;;;;6.70;1.52;;;;;;;18.57;45.46;94112.00;5043231;28;20192;-88
2023/10/29 10:05:51;;;;;;;11.48;1.98;;;;;;;18.65;44.65;94111.00;5044390;28;20231;-88
2023/10/29 10:08:26;;;;;;;6.63;2.05;;;;;;;18.76;44.11;94111.19;5044734;28;20092;-88
2023/10/29 10:10:53;;;;;;;8.93;1.92;;;;;;;18.72;44.33;94114.97;5044616;28;20060;-88
2023/10/29 10:13:34;;;;;;;11.15;1.90;;;;;;;18.72;44.46;94109.56;5043102;28;20219;-88
2023/10/29 10:16:10;;;;;;;8.13;2.28;;;;;;;18.78;44.44;94105.44;5044277;28;20021;-88
2023/10/29 10:18:55;;;;;;;9.77;2.00;;;;;;;18.80;44.77;94106.66;5043745;28;20034;-75
2023/10/29 10:21:23;;;;;;;7.60;2.05;;;;;;;18.80;43.90;94105.91;5043898;28;20025;-88
2023/10/29 10:23:56;;;;;;;5.95;1.67;;;;;;;18.84;43.86;94106.72;5044045;28;20045;-87
2023/10/29 10:26:34;;;;;;;10.77;2.15;;;;;;;18.87;43.85;94095.22;5042641;28;20339;-87
2023/10/29 10:29:00;;;;;;;8.75;2.35;;;;;;;18.94;44.30;94100.75;5043022;28;20017;-88
2023/10/29 10:31:31;;;;;;;11.13;3.33;;;;;;;19.01;44.42;94090.06;5043748;28;20037;-88
2023/10/29 10:34:14;;;;;;;9.00;1.88;;;;;;;19.20;44.86;94088.44;5044024;28;20318;-88
2023/10/29 10:36:40;;;;;;;8.00;1.85;;;;;;;19.24;43.56;94086.56;5043830;28;20220;-88
2023/10/29 10:39:05;;;;;;;9.95;2.55;;;;;;;19.32;42.71;94084.75;5042612;28;20021;-88
2023/10/29 10:42:30;;;;;;;6.25;1.98;;;;;;;19.43;43.43;94086.47;5042325;28;20028;-89
2023/10/29 10:44:58;;;;;;;4.82;2.00;;;;;;;19.60;42.48;94087.09;5032215;28;20036;-88
2023/10/29 10:47:26;;;;;;;6.30;1.90;;;;;;;19.72;42.70;94088.84;5040706;28;20017;-89
2023/10/29 10:49:52;;;;;;;8.50;2.25;;;;;;;19.75;42.39;94078.06;5040358;28;20025;-88
2023/10/29 10:52:18;;;;;;;8.13;2.00;;;;;;;19.81;42.34;94084.72;5040466;28;20111;-89
2023/10/29 10:54:47;;;;;;;6.32;2.10;;;;;;;19.85;41.65;94079.38;5040819;28;20040;-89
2023/10/29 10:57:13;;;;;;;11.15;2.00;;;;;;;19.87;40.95;94079.00;5040616;28;20094;-89
2023/10/29 10:59:39;;;;;;;5.57;1.80;;;;;;;19.95;41.10;94080.66;5039638;28;20028;-88
2023/10/29 11:02:09;;;;;;;9.70;2.33;;;;;;;20.08;40.52;94079.25;5041428;28;20029;-88
2023/10/29 11:04:36;;;;;;;8.32;1.52;;;;;;;20.13;39.83;94086.25;5040598;28;20025;-88
2023/10/29 11:07:01;;;;;;;7.90;1.85;;;;;;;20.17;39.39;94087.88;5042102;28;20096;-88
2023/10/29 11:09:27;;;;;;;7.60;1.80;;;;;;;20.17;39.12;94085.19;5042686;28;20208;-88
2023/10/29 11:11:55;;;;;;;7.72;1.80;;;;;;;20.14;38.91;94074.31;5043208;28;20017;-88
2023/10/29 11:14:22;;;;;;;8.98;2.20;;;;;;;20.20;39.55;94079.03;5042964;28;20354;-87
2023/10/29 11:17:03;;;;;;;6.80;1.77;;;;;;;20.34;39.20;94072.22;5043288;28;20021;-88
2023/10/29 11:19:45;;;;;;;10.73;2.40;;;;;;;20.46;38.71;94077.38;5041983;28;20038;-88
2023/10/29 11:22:21;;;;;;;;;;;;;;;20.55;38.31;94071.66;5043658;28;20029;-88
2023/10/29 11:25:08;;;;;;;9.65;3.38;;;;;;;20.63;37.77;94071.38;5042010;28;19932;-88
2023/10/29 11:27:40;;;;;;;7.78;2.42;;;;;;;20.50;37.61;94064.66;5043110;28;20334;-88
2023/10/29 11:30:16;;;;;;;10.55;2.83;;;;;;;20.46;38.04;94066.56;5041900;28;20029;-88